createdAt,value
2018-08-31T00:01:00.965Z,100727.16
2018-08-31T00:03:40.127Z,100731.80
2018-08-31T00:06:22.648Z,100725.56
2018-08-31T00:09:02.126Z,100715.72
2018-08-31T00:11:45.999Z,100717.84
2018-08-31T00:14:12.960Z,100714.58
2018-08-31T00:16:39.946Z,100709.50
2018-08-31T00:19:06.871Z,100700.98
2018-08-31T00:21:34.543Z,100707.92
2018-08-31T00:24:13.084Z,100709.70
2018-08-31T00:26:51.560Z,100715.27
2018-08-31T00:29:39.970Z,100720.34
2018-08-31T00:32:18.791Z,100721.88
2018-08-31T00:35:03.411Z,100723.05
2018-08-31T00:37:54.317Z,100715.01
2018-08-31T00:40:35.844Z,100717.45
2018-08-31T00:43:30.123Z,100721.36
2018-08-31T00:45:57.127Z,100716.38
2018-08-31T00:48:24.016Z,100723.05
2018-08-31T00:50:50.976Z,100719.96
2018-08-31T00:53:18.950Z,100714.06
2018-08-31T00:55:47.543Z,100707.54
2018-08-31T00:58:14.513Z,100696.59
2018-08-31T01:00:42.419Z,100688.28
2018-08-31T01:03:11.087Z,100683.70
2018-08-31T01:05:38.046Z,100683.24
2018-08-31T01:08:05.085Z,100684.36
2018-08-31T01:10:32.063Z,100683.36
2018-08-31T01:12:59.007Z,100684.33
2018-08-31T01:15:26.635Z,100684.17
2018-08-31T01:17:53.531Z,100675.17
2018-08-31T01:20:20.531Z,100684.70
2018-08-31T01:22:47.458Z,100688.27
2018-08-31T01:25:14.439Z,100682.13
2018-08-31T01:27:42.397Z,100687.27
2018-08-31T01:30:10.081Z,100689.59
2018-08-31T01:32:37.046Z,100685.59
2018-08-31T01:35:03.971Z,100691.91
2018-08-31T01:37:31.020Z,100690.30
2018-08-31T01:39:58.024Z,100691.05
2018-08-31T01:42:24.985Z,100688.61
2018-08-31T01:44:51.923Z,100682.30
2018-08-31T01:47:18.872Z,100685.59
2018-08-31T01:49:45.947Z,100682.95
2018-08-31T01:52:12.870Z,100677.72
2018-08-31T01:54:39.859Z,100679.75
2018-08-31T01:57:06.819Z,100674.48
2018-08-31T01:59:33.776Z,100673.19
2018-08-31T02:02:00.691Z,100669.13
2018-08-31T02:04:27.694Z,100664.27
2018-08-31T02:06:54.719Z,100654.27
2018-08-31T02:09:22.088Z,100649.97
2018-08-31T02:11:50.071Z,100656.17
2018-08-31T02:14:18.082Z,100651.09
2018-08-31T02:16:45.112Z,100652.57
2018-08-31T02:19:12.091Z,100654.27
2018-08-31T02:21:40.091Z,100643.28
2018-08-31T02:24:07.024Z,100641.00
2018-08-31T02:26:34.021Z,100641.80
2018-08-31T02:29:01.443Z,100638.03
2018-08-31T02:31:28.524Z,100630.00
2018-08-31T02:33:55.467Z,100618.55
2018-08-31T02:36:22.676Z,100615.72
2018-08-31T02:38:49.791Z,100612.28
2018-08-31T02:41:16.943Z,100609.98
2018-08-31T02:43:44.919Z,100604.09
2018-08-31T02:46:11.912Z,100609.53
2018-08-31T02:48:38.895Z,100612.65
2018-08-31T02:51:05.853Z,100612.33
2018-08-31T02:53:32.771Z,100615.29
2018-08-31T02:55:59.731Z,100611.36
2018-08-31T02:58:26.730Z,100615.29
2018-08-31T03:00:53.696Z,100614.80
2018-08-31T03:03:20.644Z,100608.73
2018-08-31T03:05:47.559Z,100613.50
2018-08-31T03:08:14.577Z,100613.02
2018-08-31T03:10:41.600Z,100608.75
2018-08-31T03:13:08.570Z,100614.00
2018-08-31T03:15:35.567Z,100621.86
2018-08-31T03:18:02.647Z,100622.18
2018-08-31T03:20:29.633Z,100624.16
2018-08-31T03:22:56.576Z,100616.94
2018-08-31T03:25:23.508Z,100624.50
2018-08-31T03:27:50.504Z,100620.56
2018-08-31T03:30:17.827Z,100610.26
2018-08-31T03:32:45.935Z,100604.20
2018-08-31T03:35:12.897Z,100606.97
2018-08-31T03:37:39.855Z,100604.84
2018-08-31T03:40:06.807Z,100606.47
2018-08-31T03:42:33.767Z,100610.73
2018-08-31T03:45:00.753Z,100607.78
2018-08-31T03:47:27.647Z,100609.75
2018-08-31T03:49:54.647Z,100603.70
2018-08-31T03:52:21.601Z,100605.19
2018-08-31T03:54:48.542Z,100612.36
2018-08-31T03:57:16.185Z,100615.47
2018-08-31T03:59:45.255Z,100618.77
2018-08-31T04:02:13.191Z,100625.48
2018-08-31T04:04:40.155Z,100616.80
2018-08-31T04:07:07.148Z,100617.30
2018-08-31T04:09:36.139Z,100615.98
2018-08-31T04:12:03.075Z,100622.86
2018-08-31T04:14:30.039Z,100625.30
2018-08-31T04:16:57.034Z,100624.48
2018-08-31T04:19:23.993Z,100624.80
2018-08-31T04:21:50.915Z,100624.66
2018-08-31T04:24:18.975Z,100631.05
2018-08-31T04:26:46.451Z,100631.03
2018-08-31T04:29:13.436Z,100633.98
2018-08-31T04:31:40.516Z,100635.78
2018-08-31T04:34:09.436Z,100636.77
2018-08-31T04:36:36.376Z,100627.77
2018-08-31T04:39:04.887Z,100639.20
2018-08-31T04:41:31.799Z,100629.08
2018-08-31T04:43:59.783Z,100633.97
2018-08-31T04:46:26.756Z,100635.94
2018-08-31T04:48:53.748Z,100640.88
2018-08-31T04:51:20.675Z,100645.30
2018-08-31T04:53:48.128Z,100642.50
2018-08-31T04:56:15.098Z,100640.37
2018-08-31T04:58:42.052Z,100642.18
2018-08-31T05:01:09.029Z,100636.45
2018-08-31T05:03:36.983Z,100634.98
2018-08-31T05:06:04.434Z,100627.44
2018-08-31T05:08:31.424Z,100633.17
2018-08-31T05:10:58.363Z,100630.39
2018-08-31T05:13:25.311Z,100626.30
2018-08-31T05:15:52.306Z,100630.70
2018-08-31T05:18:19.241Z,100627.09
2018-08-31T05:20:46.189Z,100637.26
2018-08-31T05:23:13.144Z,100625.80
2018-08-31T05:25:40.096Z,100629.70
2018-08-31T05:28:07.051Z,100639.03
2018-08-31T05:30:34.012Z,100643.13
2018-08-31T05:33:01.996Z,100641.48
2018-08-31T05:35:29.008Z,100648.36
2018-08-31T05:37:55.929Z,100647.37
2018-08-31T05:40:22.963Z,100651.14
2018-08-31T05:42:49.964Z,100641.48
2018-08-31T05:45:17.696Z,100647.37
2018-08-31T05:47:44.687Z,100646.92
2018-08-31T05:50:11.595Z,100649.83
2018-08-31T05:52:38.606Z,100648.03
2018-08-31T05:55:05.520Z,100638.89
2018-08-31T05:57:32.496Z,100645.28
2018-08-31T05:59:59.455Z,100639.55
2018-08-31T06:02:26.419Z,100629.72
2018-08-31T06:04:53.425Z,100623.48
2018-08-31T06:07:21.220Z,100632.19
2018-08-31T06:09:48.718Z,100639.05
2018-08-31T06:12:15.671Z,100644.47
2018-08-31T06:14:42.644Z,100636.94
2018-08-31T06:17:13.059Z,100651.34
2018-08-31T06:19:40.739Z,100651.85
2018-08-31T06:22:07.700Z,100640.20
2018-08-31T06:24:34.655Z,100649.05
2018-08-31T06:27:02.156Z,100654.30
2018-08-31T06:29:31.176Z,100649.88
2018-08-31T06:31:58.087Z,100653.32
2018-08-31T06:34:26.312Z,100660.84
2018-08-31T06:36:54.496Z,100665.27
2018-08-31T06:39:21.435Z,100659.22
2018-08-31T06:41:48.363Z,100658.56
2018-08-31T06:44:15.374Z,100657.73
2018-08-31T06:46:43.262Z,100659.20
2018-08-31T06:49:10.167Z,100662.14
2018-08-31T06:51:37.161Z,100659.53
2018-08-31T06:54:04.156Z,100652.12
2018-08-31T06:56:31.809Z,100653.22
2018-08-31T06:58:58.721Z,100653.66
2018-08-31T07:01:25.667Z,100640.48
2018-08-31T07:03:52.723Z,100648.62
2018-08-31T07:06:19.616Z,100643.08
2018-08-31T07:08:47.267Z,100644.32
2018-08-31T07:11:14.187Z,100644.19
2018-08-31T07:13:41.199Z,100638.77
2018-08-31T07:16:09.147Z,100639.77
2018-08-31T07:18:36.816Z,100645.19
2018-08-31T07:21:03.819Z,100644.27
2018-08-31T07:23:30.751Z,100653.19
2018-08-31T07:25:57.771Z,100660.49
2018-08-31T07:28:25.787Z,100658.86
2018-08-31T07:30:52.772Z,100655.09
2018-08-31T07:33:19.747Z,100656.38
2018-08-31T07:35:46.710Z,100664.81
2018-08-31T07:38:13.627Z,100663.98
2018-08-31T07:40:40.605Z,100665.31
2018-08-31T07:43:07.531Z,100661.03
2018-08-31T07:45:34.491Z,100668.44
2018-08-31T07:48:01.447Z,100664.05
2018-08-31T07:50:28.468Z,100658.51
2018-08-31T07:52:56.448Z,100649.81
2018-08-31T07:55:23.340Z,100657.17
2018-08-31T07:57:50.312Z,100660.38
2018-08-31T08:00:17.371Z,100662.30
2018-08-31T08:02:44.296Z,100665.42
2018-08-31T08:05:11.740Z,100670.33
2018-08-31T08:07:38.672Z,100665.42
2018-08-31T08:10:05.680Z,100672.52
2018-08-31T08:12:32.561Z,100672.69
2018-08-31T08:14:59.519Z,100672.59
2018-08-31T08:17:26.441Z,100676.97
2018-08-31T08:19:53.433Z,100680.34
2018-08-31T08:22:20.392Z,100680.39
2018-08-31T08:24:47.374Z,100678.13
2018-08-31T08:27:14.315Z,100677.97
2018-08-31T08:29:41.274Z,100677.56
2018-08-31T08:32:08.228Z,100686.46
2018-08-31T08:34:35.176Z,100673.28
2018-08-31T08:37:02.139Z,100674.05
2018-08-31T08:39:29.144Z,100673.86
2018-08-31T08:41:56.824Z,100669.56
2018-08-31T08:44:23.732Z,100671.88
2018-08-31T08:46:50.595Z,100678.72
2018-08-31T08:49:17.515Z,100678.03
2018-08-31T08:51:45.568Z,100674.19
2018-08-31T08:54:12.507Z,100660.54
2018-08-31T08:56:39.461Z,100665.26
2018-08-31T08:59:06.402Z,100671.37
2018-08-31T09:01:33.363Z,100671.06
2018-08-31T09:04:00.340Z,100662.54
2018-08-31T09:06:27.809Z,100668.25
2018-08-31T09:08:54.731Z,100662.39
2018-08-31T09:11:21.720Z,100669.92
2018-08-31T09:13:48.685Z,100660.31
2018-08-31T09:16:15.619Z,100660.13
2018-08-31T09:18:42.590Z,100674.86
2018-08-31T09:21:09.528Z,100673.77
2018-08-31T09:23:36.487Z,100672.01
2018-08-31T09:26:06.084Z,100678.24
2018-08-31T09:28:33.084Z,100677.26
2018-08-31T09:31:00.052Z,100677.87
2018-08-31T09:33:27.016Z,100676.54
2018-08-31T09:35:54.020Z,100678.70
2018-08-31T09:38:20.910Z,100681.52
2018-08-31T09:40:49.799Z,100677.63
2018-08-31T09:43:17.372Z,100668.09
2018-08-31T09:45:44.372Z,100681.39
2018-08-31T09:48:11.287Z,100670.63
2018-08-31T09:50:38.249Z,100678.81
2018-08-31T09:53:05.159Z,100681.00
2018-08-31T09:55:32.152Z,100675.86
2018-08-31T09:57:59.185Z,100680.26
2018-08-31T10:00:32.074Z,100676.22
2018-08-31T10:03:04.592Z,100686.27
2018-08-31T10:05:31.574Z,100687.68
2018-08-31T10:07:58.542Z,100683.31
2018-08-31T10:10:25.501Z,100680.94
2018-08-31T10:12:52.435Z,100680.31
2018-08-31T10:15:19.379Z,100689.59
2018-08-31T10:17:46.331Z,100691.13
2018-08-31T10:20:13.359Z,100685.64
2018-08-31T10:22:40.408Z,100683.55
2018-08-31T10:25:07.287Z,100685.58
2018-08-31T10:27:34.311Z,100683.08
2018-08-31T10:30:01.304Z,100676.20
2018-08-31T10:32:28.196Z,100671.27
2018-08-31T10:34:55.161Z,100669.76
2018-08-31T10:37:22.063Z,100666.56
2018-08-31T10:39:49.096Z,100666.38
2018-08-31T10:42:16.016Z,100675.48
2018-08-31T10:44:42.994Z,100669.41
2018-08-31T10:47:09.936Z,100671.42
2018-08-31T10:49:36.914Z,100671.47
2018-08-31T10:52:03.813Z,100665.60
2018-08-31T10:54:30.799Z,100659.91
2018-08-31T10:56:57.766Z,100656.15
2018-08-31T10:59:24.716Z,100659.14
2018-08-31T11:01:51.674Z,100664.17
2018-08-31T11:04:18.643Z,100656.27
2018-08-31T11:06:45.580Z,100658.52
2018-08-31T11:09:12.572Z,100665.19
2018-08-31T11:11:39.541Z,100665.62
2018-08-31T11:14:06.462Z,100663.66
2018-08-31T11:16:33.442Z,100653.56
2018-08-31T11:19:00.424Z,100659.77
2018-08-31T11:21:27.319Z,100651.42
2018-08-31T11:23:54.283Z,100649.69
2018-08-31T11:26:21.254Z,100650.61
2018-08-31T11:28:48.224Z,100653.77
2018-08-31T11:31:15.644Z,100647.80
2018-08-31T11:33:42.639Z,100646.32
2018-08-31T11:36:09.628Z,100651.91
2018-08-31T11:38:36.564Z,100644.78
2018-08-31T11:41:03.657Z,100653.17
2018-08-31T11:43:30.604Z,100653.94
2018-08-31T11:45:57.543Z,100647.46
2018-08-31T11:48:24.476Z,100650.97
2018-08-31T11:50:51.499Z,100647.52
2018-08-31T11:53:18.475Z,100652.88
2018-08-31T11:55:45.468Z,100651.02
2018-08-31T11:58:12.411Z,100651.06
2018-08-31T12:00:39.386Z,100651.23
2018-08-31T12:03:06.327Z,100649.70
2018-08-31T12:05:33.345Z,100651.92
2018-08-31T12:08:00.341Z,100652.08
2018-08-31T12:10:27.311Z,100645.78
2018-08-31T12:12:55.228Z,100646.05
2018-08-31T12:15:22.147Z,100652.11
2018-08-31T12:17:49.094Z,100642.85
2018-08-31T12:20:16.056Z,100648.83
2018-08-31T12:22:42.976Z,100647.45
2018-08-31T12:25:09.967Z,100637.21
2018-08-31T12:27:36.959Z,100644.52
2018-08-31T12:30:03.909Z,100638.50
2018-08-31T12:32:30.966Z,100644.09
2018-08-31T12:34:57.925Z,100644.70
2018-08-31T12:37:24.847Z,100636.70
2018-08-31T12:39:51.815Z,100638.92
2018-08-31T12:42:18.775Z,100634.50
2018-08-31T12:44:45.761Z,100630.02
2018-08-31T12:47:12.676Z,100632.28
2018-08-31T12:49:39.715Z,100632.58
2018-08-31T12:52:06.802Z,100636.59
2018-08-31T12:54:33.804Z,100643.62
2018-08-31T12:57:00.723Z,100645.66
2018-08-31T12:59:27.794Z,100640.84
2018-08-31T13:01:54.928Z,100638.90
2018-08-31T13:04:21.796Z,100639.41
2018-08-31T13:06:48.777Z,100635.88
2018-08-31T13:09:15.711Z,100631.59
2018-08-31T13:11:42.695Z,100633.93
2018-08-31T13:14:09.630Z,100624.36
2018-08-31T13:16:36.580Z,100623.28
2018-08-31T13:19:03.540Z,100629.59
2018-08-31T13:21:30.527Z,100630.18
2018-08-31T13:23:57.486Z,100625.98
2018-08-31T13:26:24.407Z,100617.41
2018-08-31T13:28:51.414Z,100615.91
2018-08-31T13:31:18.353Z,100624.36
2018-08-31T13:33:45.308Z,100622.64
2018-08-31T13:36:12.275Z,100614.07
2018-08-31T13:38:39.184Z,100616.66
2018-08-31T13:41:06.159Z,100615.64
2018-08-31T13:43:33.112Z,100616.84
2018-08-31T13:46:00.068Z,100607.55
2018-08-31T13:48:27.092Z,100618.62
2018-08-31T13:50:54.422Z,100620.18
2018-08-31T13:53:21.378Z,100610.94
2018-08-31T13:55:48.307Z,100616.23
2018-08-31T13:58:15.277Z,100605.85
2018-08-31T14:00:42.233Z,100598.12
2018-08-31T14:03:09.160Z,100618.34
2018-08-31T14:05:36.150Z,100608.15
2018-08-31T14:08:04.127Z,100615.91
2018-08-31T14:10:31.102Z,100615.70
2018-08-31T14:12:58.955Z,100620.27
2018-08-31T14:15:25.919Z,100615.39
2018-08-31T14:17:52.878Z,100607.97
2018-08-31T14:20:19.914Z,100611.36
2018-08-31T14:22:46.904Z,100616.72
2018-08-31T14:25:13.887Z,100623.73
2018-08-31T14:27:40.810Z,100616.16
2018-08-31T14:30:07.759Z,100609.13
2018-08-31T14:32:34.754Z,100617.74
2018-08-31T14:35:01.708Z,100609.20
2018-08-31T14:37:28.843Z,100605.63
2018-08-31T14:39:55.795Z,100602.88
2018-08-31T14:42:24.385Z,100602.25
2018-08-31T14:44:51.468Z,100597.44
2018-08-31T14:47:19.510Z,100607.13
2018-08-31T14:49:46.529Z,100601.95
2018-08-31T14:52:14.435Z,100602.22
2018-08-31T14:54:41.451Z,100599.02
2018-08-31T14:57:08.400Z,100590.22
2018-08-31T14:59:35.454Z,100594.31
2018-08-31T15:02:02.412Z,100601.35
2018-08-31T15:04:29.367Z,100591.75
2018-08-31T15:06:57.040Z,100600.47
2018-08-31T15:09:24.060Z,100592.20
2018-08-31T15:11:51.100Z,100599.52
2018-08-31T15:14:19.127Z,100598.16
2018-08-31T15:16:46.155Z,100592.39
2018-08-31T15:19:13.057Z,100595.84
2018-08-31T15:21:40.018Z,100597.41
2018-08-31T15:24:06.979Z,100605.68
2018-08-31T15:26:33.939Z,100601.11
2018-08-31T15:29:00.859Z,100600.42
2018-08-31T15:31:27.952Z,100606.73
2018-08-31T15:33:54.807Z,100610.02
2018-08-31T15:36:22.351Z,100597.11
2018-08-31T15:38:51.139Z,100596.38
2018-08-31T15:41:18.155Z,100604.84
2018-08-31T15:43:45.092Z,100599.83
2018-08-31T15:46:12.063Z,100608.48
2018-08-31T15:48:39.038Z,100606.64
2018-08-31T15:51:05.999Z,100606.14
2018-08-31T15:53:33.959Z,100635.05
2018-08-31T15:56:00.962Z,100637.80
2018-08-31T15:58:27.830Z,100642.59
2018-08-31T16:00:54.795Z,100642.41
2018-08-31T16:03:22.600Z,100640.22
2018-08-31T16:05:49.552Z,100643.48
2018-08-31T16:08:16.490Z,100643.73
2018-08-31T16:10:44.111Z,100635.41
2018-08-31T16:13:11.070Z,100636.20
2018-08-31T16:15:38.021Z,100639.72
2018-08-31T16:18:04.947Z,100640.64
2018-08-31T16:20:31.967Z,100634.80
2018-08-31T16:22:58.889Z,100642.25
2018-08-31T16:25:26.534Z,100645.52
2018-08-31T16:27:53.478Z,100646.80
2018-08-31T16:30:20.444Z,100651.73
2018-08-31T16:32:47.448Z,100654.28
2018-08-31T16:35:14.408Z,100655.00
2018-08-31T16:37:41.345Z,100655.83
2018-08-31T16:40:08.340Z,100652.69
2018-08-31T16:42:35.474Z,100654.69
2018-08-31T16:45:02.416Z,100655.42
2018-08-31T16:47:29.395Z,100660.27
2018-08-31T16:49:56.387Z,100658.82
2018-08-31T16:52:23.296Z,100659.34
2018-08-31T16:54:50.238Z,100662.67
2018-08-31T16:57:17.196Z,100664.31
2018-08-31T16:59:44.269Z,100666.61
2018-08-31T17:02:11.235Z,100670.20
2018-08-31T17:04:38.177Z,100678.08
2018-08-31T17:07:05.131Z,100678.84
2018-08-31T17:09:32.197Z,100679.20
2018-08-31T17:11:59.435Z,100675.79
2018-08-31T17:14:26.407Z,100678.72
2018-08-31T17:16:53.372Z,100679.48
2018-08-31T17:19:20.351Z,100682.48
2018-08-31T17:21:47.378Z,100680.83
2018-08-31T17:24:14.347Z,100686.45
2018-08-31T17:26:47.079Z,100693.06
2018-08-31T17:29:19.895Z,100695.09
2018-08-31T17:31:52.560Z,100690.14
2018-08-31T17:34:25.207Z,100695.66
2018-08-31T17:36:57.955Z,100697.56
2018-08-31T17:39:25.569Z,100699.75
2018-08-31T17:41:52.540Z,100698.09
2018-08-31T17:44:19.493Z,100693.53
2018-08-31T17:46:47.160Z,100694.17
2018-08-31T17:49:14.127Z,100702.50
2018-08-31T17:51:41.098Z,100701.23
2018-08-31T17:54:08.057Z,100702.84
2018-08-31T17:56:35.055Z,100703.00
2018-08-31T17:59:01.960Z,100698.31
2018-08-31T18:01:28.969Z,100701.03
2018-08-31T18:03:55.946Z,100705.20
2018-08-31T18:06:22.856Z,100707.03
2018-08-31T18:08:50.845Z,100711.14
2018-08-31T18:11:17.743Z,100721.47
2018-08-31T18:13:44.744Z,100719.76
2018-08-31T18:16:11.719Z,100725.42
2018-08-31T18:18:38.635Z,100725.46
2018-08-31T18:21:05.618Z,100729.73
2018-08-31T18:23:32.554Z,100730.94
2018-08-31T18:25:59.623Z,100737.88
2018-08-31T18:28:26.484Z,100738.70
2018-08-31T18:30:53.647Z,100744.75
2018-08-31T18:33:20.582Z,100744.20
2018-08-31T18:35:47.552Z,100754.73
2018-08-31T18:38:14.492Z,100758.80
2018-08-31T18:40:41.461Z,100766.72
2018-08-31T18:43:08.470Z,100769.02
2018-08-31T18:45:35.378Z,100772.95
2018-08-31T18:48:02.353Z,100768.69
2018-08-31T18:50:29.344Z,100773.39
2018-08-31T18:52:56.267Z,100774.35
2018-08-31T18:55:23.216Z,100783.14
2018-08-31T18:57:50.186Z,100781.86
2018-08-31T19:00:17.416Z,100786.69
2018-08-31T19:02:44.522Z,100788.77
2018-08-31T19:05:12.052Z,100793.81
2018-08-31T19:07:39.121Z,100790.61
2018-08-31T19:10:06.047Z,100793.91
2018-08-31T19:12:33.173Z,100795.75
2018-08-31T19:15:00.129Z,100801.08
2018-08-31T19:17:27.088Z,100801.27
2018-08-31T19:19:54.024Z,100804.32
2018-08-31T19:22:21.011Z,100803.30
2018-08-31T19:24:47.899Z,100801.28
2018-08-31T19:27:14.839Z,100803.07
2018-08-31T19:29:41.799Z,100800.41
2018-08-31T19:32:09.195Z,100807.06
2018-08-31T19:34:36.704Z,100805.83
2018-08-31T19:37:03.651Z,100804.66
2018-08-31T19:39:30.651Z,100806.14
2018-08-31T19:41:57.539Z,100809.59
2018-08-31T19:44:24.519Z,100807.54
2018-08-31T19:46:51.599Z,100816.69
2018-08-31T19:49:18.392Z,100808.59
2018-08-31T19:51:45.367Z,100805.89
2018-08-31T19:54:12.397Z,100809.30
2018-08-31T19:56:39.268Z,100806.35
2018-08-31T19:59:06.223Z,100805.14
2018-08-31T20:01:33.227Z,100806.95
2018-08-31T20:04:00.703Z,100809.75
2018-08-31T20:06:27.687Z,100802.77
2018-08-31T20:08:55.183Z,100805.33
2018-08-31T20:11:22.167Z,100799.66
2018-08-31T20:13:49.833Z,100812.97
2018-08-31T20:16:17.226Z,100807.95
2018-08-31T20:18:44.157Z,100816.52
2018-08-31T20:21:11.127Z,100812.68
2018-08-31T20:23:38.095Z,100814.64
2018-08-31T20:26:05.114Z,100815.33
2018-08-31T20:28:32.099Z,100822.64
2018-08-31T20:31:00.076Z,100821.83
2018-08-31T20:33:26.948Z,100825.70
2018-08-31T20:35:53.904Z,100831.57
2018-08-31T20:38:20.885Z,100834.45
2018-08-31T20:40:47.876Z,100834.80
2018-08-31T20:43:14.968Z,100832.53
2018-08-31T20:45:41.906Z,100831.72
2018-08-31T20:48:08.939Z,100830.19
2018-08-31T20:50:35.942Z,100834.09
2018-08-31T20:53:02.930Z,100830.89
2018-08-31T20:55:29.913Z,100837.16
2018-08-31T20:57:56.883Z,100836.57
2018-08-31T21:00:23.895Z,100836.86
2018-08-31T21:02:50.876Z,100839.84
2018-08-31T21:05:17.760Z,100844.31
2018-08-31T21:07:44.780Z,100835.64
2018-08-31T21:10:11.740Z,100838.09
2018-08-31T21:12:38.697Z,100840.10
2018-08-31T21:15:05.607Z,100842.70
2018-08-31T21:17:33.632Z,100837.67
2018-08-31T21:20:00.683Z,100843.25
2018-08-31T21:22:27.663Z,100838.66
2018-08-31T21:24:55.332Z,100840.69
2018-08-31T21:27:22.271Z,100835.75
2018-08-31T21:29:49.216Z,100840.53
2018-08-31T21:32:16.161Z,100843.48
2018-08-31T21:34:43.015Z,100843.53
2018-08-31T21:37:09.951Z,100838.73
2018-08-31T21:39:36.979Z,100840.84
2018-08-31T21:42:04.077Z,100847.25
2018-08-31T21:44:30.951Z,100844.30
2018-08-31T21:46:57.883Z,100838.31
2018-08-31T21:49:24.928Z,100841.62
2018-08-31T21:51:54.827Z,100839.50
2018-08-31T21:54:21.747Z,100836.38
2018-08-31T21:56:48.699Z,100834.03
2018-08-31T21:59:17.712Z,100834.38
2018-08-31T22:01:52.651Z,100831.11
2018-08-31T22:04:19.703Z,100834.47
2018-08-31T22:06:46.627Z,100840.28
2018-08-31T22:09:13.649Z,100835.94
2018-08-31T22:11:40.600Z,100832.59
2018-08-31T22:14:08.304Z,100837.80
2018-08-31T22:16:35.232Z,100837.21
2018-08-31T22:19:02.379Z,100835.05
2018-08-31T22:21:29.312Z,100839.75
2018-08-31T22:23:56.391Z,100842.48
2018-08-31T22:26:23.352Z,100843.91
2018-08-31T22:28:50.305Z,100841.63
2018-08-31T22:31:17.219Z,100837.19
2018-08-31T22:33:44.255Z,100839.55
2018-08-31T22:36:11.177Z,100835.77
2018-08-31T22:38:38.154Z,100830.54
2018-08-31T22:41:05.101Z,100833.88
2018-08-31T22:43:37.804Z,100828.59
2018-08-31T22:46:04.802Z,100827.84
2018-08-31T22:48:31.731Z,100828.16
2018-08-31T22:50:58.626Z,100828.19
2018-08-31T22:53:25.625Z,100830.64
2018-08-31T22:55:53.296Z,100834.47
2018-08-31T22:58:20.867Z,100837.45
2018-08-31T23:00:47.779Z,100839.91
2018-08-31T23:03:15.305Z,100839.72
2018-08-31T23:05:44.186Z,100837.73
2018-08-31T23:08:11.152Z,100839.05
2018-08-31T23:10:38.830Z,100839.59
2018-08-31T23:13:05.819Z,100841.19
2018-08-31T23:15:32.723Z,100842.98
2018-08-31T23:17:59.707Z,100839.56
2018-08-31T23:20:26.696Z,100837.25
2018-08-31T23:22:59.310Z,100829.90
2018-08-31T23:25:32.681Z,100830.90
2018-08-31T23:28:00.362Z,100838.30
2018-08-31T23:30:27.315Z,100832.25
2018-08-31T23:32:54.855Z,100837.67
2018-08-31T23:35:21.824Z,100839.95
2018-08-31T23:37:51.339Z,100834.88
2018-08-31T23:40:18.829Z,100836.02
2018-08-31T23:42:46.379Z,100835.69
2018-08-31T23:45:13.307Z,100834.72
2018-08-31T23:47:40.392Z,100832.61
2018-08-31T23:50:07.355Z,100835.55
2018-08-31T23:52:34.298Z,100839.05
2018-08-31T23:55:01.868Z,100842.95
2018-08-31T23:57:28.872Z,100829.47
2018-08-31T23:59:55.809Z,100832.63
